Ferndale, MI

12:18 PM EDT on April 25, 2015 (GMT -0400)
Chili Dog | | Change Station
CLOSE
Current Station
Personal Weather Station
Location: Madison Heights, MI
Elevation: 633 ft
Nearby Weather Stations

Elev 633 ft 42.50 °N, 83.11 °W | Updated 16 seconds ago

Overcast
Overcast
47.3 °F
Feels Like 45 °F
N
5.4
Wind Variable Wind from NW
Gusts 9.8 mph

Today
High -- | Low -- °F
--% Chance of Precip.
Yesterday
High -- | Low -- °F
Precip. -- in
6:36 AM 8:25 PM
Waxing Crescent, 47% visible
Pressure 29.92 in
Visibility 10.0 miles
Clouds Overcast 11000 ft
Windchill 45 °F
Dew Point 27 °F
Humidity 45%
Rainfall 0.00 in
Snow Depth Not available.
UV 3 out of 12
Pollen 6.60 out of 12
Air Quality Not available.
Flu Activity Regional
METAR KVLL 251615Z AUTO 10010KT 10SM OVC110 08/M07 A2992 RMK AO2 T00791066

More Conditions Fewer Conditions

Pressure 29.92 in
Visibility 10.0 miles
Clouds Overcast 11000 ft
Windchill 45 °F
Dew Point 27 °F
Humidity 45%
Rainfall 0.00 in
Snow Depth Not available.
UV 3 out of 12
Pollen 6.60 out of 12
Air Quality Not available.
Flu Activity Regional
METAR KVLL 251615Z AUTO 10010KT 10SM OVC110 08/M07 A2992 RMK AO2 T00791066

More Conditions Fewer Conditions

10-Day Weather Forecast

Almanac

Astronomy

Apr. 25, 2015 Rise Set
Actual Time
Civil Twilight
Nautical Twilight
Astronomical Twilight
Moon
Length of Visible Light
Length of Day
Tomorrow will be .
, % of the Moon is Illuminated

Today's Extremes

State Highs State Lows

Community

WunderPhotos

Upload Photos

1,816,731 photos uploaded!

WunderBlogs® & News

Nearby

Air Quality

  Air Quality AQ Index Pollutant
Not available.

Snow Depth

Station Depth Elevation

Earthquake Activity

City Distance Mag. Time & Date
Minimum magnitude displayed is 2.5.

Coastal Water Temperatures

Place Temperature

Stations

Nearby Weather Stations

Station Location Temp. Windchill Dew Point Humidity Wind Precip. Elev Updated Type